Time;durP1;ratioP1;P1;durP2;ratioP2;P2;SDS_P1;SDS_P2;PMS_P1;PMS_P2;Temp;Humidity;BMP_temperature;BMP_pressure;BME280_temperature;BME280_humidity;BME280_pressure;Samples;Min_cycle;Max_cycle;Signal;HPM_P1;HPM_P2
2022/04/15 00:01:02;;;;;;;21.38;9.18;;;;;;;10.20;54.90;100548.66;4880871;29;20128;-75
2022/04/15 00:03:30;;;;;;;21.90;9.70;;;;;;;10.12;55.81;100547.34;4879505;29;20495;-76
2022/04/15 00:05:59;;;;;;;16.65;8.52;;;;;;;10.07;56.19;100550.28;4864145;29;20044;-74
2022/04/15 00:08:28;;;;;;;16.33;8.40;;;;;;;10.18;56.06;100542.56;4880768;29;20064;-77
2022/04/15 00:10:58;;;;;;;16.92;8.82;;;;;;;10.02;57.15;100537.19;4880895;29;20137;-75
2022/04/15 00:13:33;;;;;;;19.58;9.30;;;;;;;9.86;59.07;100536.28;4880694;29;20053;-76
2022/04/15 00:16:02;;;;;;;19.17;9.05;;;;;;;9.67;60.39;100541.72;4881053;29;20045;-76
2022/04/15 00:18:31;;;;;;;21.92;9.45;;;;;;;9.58;60.63;100546.66;4880571;29;20045;-77
2022/04/15 00:20:59;;;;;;;17.90;9.40;;;;;;;9.54;59.66;100540.59;4864085;29;20396;-74
2022/04/15 00:23:27;;;;;;;20.90;9.63;;;;;;;9.48;59.77;100530.28;4863590;29;20107;-76
2022/04/15 00:25:58;;;;;;;19.38;9.55;;;;;;;9.61;60.49;100531.38;4863541;29;20507;-75
2022/04/15 00:28:26;;;;;;;16.65;9.00;;;;;;;9.54;61.10;100521.09;4880390;29;20406;-76
2022/04/15 00:30:55;;;;;;;20.80;9.98;;;;;;;9.46;61.07;100518.88;4880451;29;20053;-76
2022/04/15 00:33:23;;;;;;;16.05;9.02;;;;;;;9.38;61.98;100523.72;4863220;29;20060;-76
2022/04/15 00:35:51;;;;;;;20.10;9.70;;;;;;;9.28;63.18;100514.47;4880502;29;20053;-76
2022/04/15 00:38:20;;;;;;;18.95;8.85;;;;;;;9.14;63.54;100516.00;4880299;29;20154;-75
2022/04/15 00:40:48;;;;;;;21.63;9.80;;;;;;;8.97;63.49;100515.97;4880112;29;20451;-74
2022/04/15 00:43:17;;;;;;;20.73;9.00;;;;;;;8.95;63.26;100520.50;4863577;29;20081;-75
2022/04/15 00:45:47;;;;;;;23.40;9.65;;;;;;;8.89;64.65;100520.84;4880140;29;20521;-76
2022/04/15 00:48:19;;;;;;;22.73;9.48;;;;;;;8.85;65.84;100513.94;4879363;29;20121;-76
2022/04/15 00:50:47;;;;;;;20.17;9.60;;;;;;;8.87;66.20;100517.38;4880161;29;20109;-77
2022/04/15 00:53:20;;;;;;;21.27;9.57;;;;;;;8.83;66.36;100521.13;4879980;29;20060;-77
2022/04/15 00:55:53;;;;;;;15.73;9.37;;;;;;;8.72;66.94;100512.81;4880479;29;20077;-77
2022/04/15 00:58:25;;;;;;;20.15;10.05;;;;;;;8.72;67.23;100515.47;4880202;29;20096;-76
2022/04/15 01:00:56;;;;;;;19.67;9.82;;;;;;;8.77;67.20;100518.75;4880180;29;20045;-76
2022/04/15 01:03:25;;;;;;;19.52;9.77;;;;;;;8.69;67.76;100500.53;4879718;29;20047;-76
2022/04/15 01:05:58;;;;;;;25.33;10.45;;;;;;;8.52;69.40;100501.34;4880092;29;20480;-76
2022/04/15 01:08:29;;;;;;;22.42;10.10;;;;;;;8.45;70.00;100499.03;4879761;29;20041;-75
2022/04/15 01:11:00;;;;;;;22.77;10.57;;;;;;;8.57;67.76;100495.78;4880115;29;20056;-75
2022/04/15 01:13:34;;;;;;;22.17;10.60;;;;;;;8.64;66.49;100496.34;4879534;29;20101;-75
2022/04/15 01:16:03;;;;;;;16.85;9.23;;;;;;;8.76;65.25;100483.31;4862928;29;20060;-74
2022/04/15 01:18:31;;;;;;;21.98;11.48;;;;;;;8.76;65.02;100488.63;4879771;29;20078;-74
2022/04/15 01:21:00;;;;;;;20.73;9.68;;;;;;;8.52;67.60;100487.19;4879706;29;20128;-74
2022/04/15 01:23:30;;;;;;;23.52;9.65;;;;;;;8.46;68.47;100485.66;4879824;29;20045;-77
2022/04/15 01:25:58;;;;;;;22.77;9.15;;;;;;;8.36;68.98;100489.69;4879585;29;20104;-77
2022/04/15 01:28:27;;;;;;;22.35;9.65;;;;;;;8.32;69.22;100485.44;4862845;29;20460;-77
2022/04/15 01:30:55;;;;;;;20.30;9.85;;;;;;;8.24;69.47;100484.94;4879974;29;20399;-76
2022/04/15 01:33:23;;;;;;;23.83;9.02;;;;;;;8.21;70.22;100474.47;4862913;29;20061;-77
2022/04/15 01:35:55;;;;;;;20.65;9.80;;;;;;;8.22;69.55;100476.19;4879788;29;20052;-77
2022/04/15 01:38:23;;;;;;;19.38;9.57;;;;;;;8.18;68.70;100480.75;4879415;29;20049;-76
2022/04/15 01:40:53;;;;;;;15.95;8.85;;;;;;;8.20;69.21;100483.34;4879760;29;20056;-75
2022/04/15 01:43:21;;;;;;;19.88;8.90;;;;;;;8.16;69.76;100476.44;4879520;29;20467;-74
2022/04/15 01:45:50;;;;;;;17.73;8.73;;;;;;;8.14;70.13;100475.66;4879814;29;20049;-76
2022/04/15 01:48:18;;;;;;;21.52;9.60;;;;;;;8.17;70.15;100483.50;4878122;29;20057;-76
2022/04/15 01:50:46;;;;;;;18.45;9.52;;;;;;;8.22;70.54;100476.19;4879326;29;20128;-75
2022/04/15 01:53:14;;;;;;;18.67;8.90;;;;;;;8.27;70.68;100474.16;4879262;29;20100;-75
2022/04/15 01:55:42;;;;;;;22.13;9.68;;;;;;;8.24;69.50;100476.97;4879189;29;20430;-74
2022/04/15 01:58:12;;;;;;;17.33;8.68;;;;;;;8.20;70.42;100470.94;4877892;29;20100;-75
2022/04/15 02:00:40;;;;;;;22.90;9.57;;;;;;;8.14;71.77;100473.00;4881345;29;20147;-76
2022/04/15 02:03:08;;;;;;;19.55;8.77;;;;;;;8.07;71.50;100467.09;4882717;29;20045;-74
2022/04/15 02:05:39;;;;;;;21.95;9.90;;;;;;;7.95;72.64;100475.66;4882816;29;20060;-76
2022/04/15 02:08:08;;;;;;;18.50;10.13;;;;;;;7.97;71.21;100466.66;4883133;29;20053;-75
2022/04/15 02:10:36;;;;;;;24.33;9.35;;;;;;;7.94;71.12;100474.78;4882579;29;20068;-77
2022/04/15 02:13:04;;;;;;;21.92;9.65;;;;;;;7.91;71.63;100477.59;4866309;29;20049;-75
2022/04/15 02:15:34;;;;;;;18.90;9.48;;;;;;;7.90;70.40;100474.97;4882532;29;20081;-75
2022/04/15 02:18:02;;;;;;;17.20;9.00;;;;;;;7.94;72.83;100482.75;4882609;29;20127;-75
2022/04/15 02:20:33;;;;;;;18.25;9.90;;;;;;;7.88;72.78;100480.38;4882399;29;20533;-75
2022/04/15 02:23:01;;;;;;;19.15;9.25;;;;;;;7.97;72.39;100473.78;4866241;29;20505;-74
2022/04/15 02:25:31;;;;;;;19.00;9.20;;;;;;;8.24;71.36;100469.84;4882424;29;20079;-76
2022/04/15 02:27:59;;;;;;;18.55;9.77;;;;;;;8.26;70.18;100467.97;4881423;29;20060;-76
2022/04/15 02:30:27;;;;;;;17.90;9.30;;;;;;;8.34;69.39;100470.28;4882383;29;20100;-76
2022/04/15 02:32:59;;;;;;;17.17;9.65;;;;;;;8.41;69.13;100466.44;4882522;29;20452;-76
2022/04/15 02:35:28;;;;;;;21.35;9.65;;;;;;;8.30;68.68;100464.25;4882459;29;20056;-75
2022/04/15 02:37:56;;;;;;;17.33;8.52;;;;;;;8.37;67.33;100458.66;4878257;29;20060;-77
2022/04/15 02:40:24;;;;;;;18.08;9.13;;;;;;;8.41;66.18;100453.13;4863811;29;20484;-77
2022/04/15 02:42:52;;;;;;;23.63;9.15;;;;;;;8.16;70.24;100461.38;4863697;29;20571;-77
2022/04/15 02:45:21;;;;;;;18.10;9.27;;;;;;;8.01;70.20;100452.34;4863638;29;20070;-74
2022/04/15 02:47:50;;;;;;;20.05;9.38;;;;;;;7.87;71.57;100444.13;4863564;29;20071;-77
2022/04/15 02:50:20;;;;;;;16.90;8.98;;;;;;;7.78;72.96;100460.47;4863533;29;20084;-76
2022/04/15 02:52:49;;;;;;;21.17;9.32;;;;;;;7.71;73.40;100457.22;4863697;29;20064;-75
2022/04/15 02:55:17;;;;;;;23.00;8.93;;;;;;;7.70;73.39;100457.31;4863652;29;20073;-77
2022/04/15 02:57:45;;;;;;;24.25;9.85;;;;;;;7.66;75.14;100461.91;4863654;29;20049;-76
2022/04/15 03:00:14;;;;;;;20.00;9.93;;;;;;;7.63;75.82;100456.75;4863392;29;20046;-76
2022/04/15 03:02:43;;;;;;;16.65;8.68;;;;;;;7.47;77.08;100461.00;4862302;29;20050;-76
2022/04/15 03:05:11;;;;;;;17.55;9.02;;;;;;;7.64;74.93;100465.56;4863225;29;20049;-76
2022/04/15 03:07:41;;;;;;;20.17;9.63;;;;;;;7.78;73.59;100462.28;4862932;29;20046;-76
2022/04/15 03:10:10;;;;;;;20.85;9.73;;;;;;;7.72;73.65;100458.09;4863045;29;20057;-76
2022/04/15 03:12:39;;;;;;;20.92;9.38;;;;;;;7.60;74.06;100461.31;4862752;29;20085;-78
2022/04/15 03:15:09;;;;;;;21.27;9.75;;;;;;;7.57;72.67;100469.41;4863399;29;20128;-78
2022/04/15 03:17:38;;;;;;;17.08;9.63;;;;;;;7.38;73.82;100477.31;4863292;29;20053;-78
2022/04/15 03:20:07;;;;;;;19.33;10.05;;;;;;;7.09;74.93;100467.94;4863152;29;20049;-79
2022/04/15 03:22:37;;;;;;;20.25;9.68;;;;;;;7.33;74.49;100468.69;4862935;29;20136;-77
2022/04/15 03:25:09;;;;;;;20.75;10.63;;;;;;;7.32;74.16;100470.47;4863197;29;20105;-75
2022/04/15 03:27:37;;;;;;;18.30;9.30;;;;;;;7.28;71.82;100471.53;4863140;29;20049;-77
2022/04/15 03:30:06;;;;;;;16.35;9.02;;;;;;;7.33;70.99;100474.84;4863375;29;20057;-77
2022/04/15 03:32:35;;;;;;;19.33;9.50;;;;;;;7.43;71.24;100476.19;4876767;29;20053;-76
2022/04/15 03:35:03;;;;;;;21.48;9.20;;;;;;;7.45;71.05;100474.34;4862851;29;20376;-77
2022/04/15 03:37:31;;;;;;;16.17;9.20;;;;;;;7.30;71.31;100476.78;4866046;29;20100;-78
2022/04/15 03:39:59;;;;;;;16.98;9.32;;;;;;;7.23;71.78;100468.22;4881884;29;20047;-75
2022/04/15 03:42:29;;;;;;;19.38;8.35;;;;;;;7.31;71.41;100467.88;4881473;29;20551;-78
2022/04/15 03:44:57;;;;;;;16.98;9.73;;;;;;;7.37;70.92;100454.38;4881437;29;20065;-76
2022/04/15 03:47:25;;;;;;;17.98;9.27;;;;;;;7.53;69.82;100459.84;4881160;29;20045;-76
2022/04/15 03:49:54;;;;;;;16.58;9.45;;;;;;;7.60;69.16;100458.66;4864562;29;20059;-78
2022/04/15 03:52:22;;;;;;;17.48;8.93;;;;;;;7.55;69.58;100455.34;4880999;29;20045;-77
2022/04/15 03:54:50;;;;;;;18.75;9.40;;;;;;;7.46;70.23;100448.66;4880094;29;20144;-77
2022/04/15 03:57:21;;;;;;;17.27;8.65;;;;;;;7.33;71.18;100458.91;4881025;29;20119;-77
2022/04/15 03:59:50;;;;;;;15.35;8.73;;;;;;;7.29;72.64;100459.13;4880767;29;20069;-74
2022/04/15 04:02:18;;;;;;;20.77;9.75;;;;;;;7.28;73.06;100452.97;4880907;29;20049;-73
2022/04/15 04:04:47;;;;;;;18.33;9.50;;;;;;;7.30;73.31;100463.50;4880939;29;20049;-75
2022/04/15 04:07:16;;;;;;;19.20;9.60;;;;;;;7.31;74.14;100455.47;4864216;29;20077;-74
2022/04/15 04:09:44;;;;;;;23.80;10.00;;;;;;;7.36;74.37;100447.34;4880794;29;20132;-75
2022/04/15 04:12:12;;;;;;;23.17;9.85;;;;;;;7.34;74.38;100449.19;4880827;29;20059;-75
2022/04/15 04:14:40;;;;;;;21.02;9.93;;;;;;;7.35;73.96;100451.78;4880511;29;20056;-75
2022/04/15 04:17:10;;;;;;;16.95;9.15;;;;;;;7.38;74.21;100446.31;4880494;29;20037;-74
2022/04/15 04:19:38;;;;;;;19.75;9.30;;;;;;;7.41;74.30;100435.56;4880262;29;20463;-78
2022/04/15 04:22:07;;;;;;;16.13;9.45;;;;;;;7.62;73.86;100443.50;4878654;29;20049;-78
2022/04/15 04:24:35;;;;;;;19.85;9.88;;;;;;;7.85;72.56;100446.00;4880295;29;20064;-76
2022/04/15 04:27:03;;;;;;;17.63;9.65;;;;;;;7.92;72.35;100435.97;4880908;29;20447;-77
2022/04/15 04:29:31;;;;;;;17.95;9.00;;;;;;;8.03;71.92;100439.84;4863780;29;20414;-78
2022/04/15 04:31:59;;;;;;;19.88;9.60;;;;;;;8.35;70.95;100456.09;4879292;29;20448;-76
2022/04/15 04:34:29;;;;;;;20.77;10.75;;;;;;;8.30;71.66;100452.75;4880660;29;20495;-76
2022/04/15 04:36:57;;;;;;;17.73;9.48;;;;;;;8.58;69.38;100447.84;4880345;29;20093;-75
2022/04/15 04:39:27;;;;;;;19.98;9.52;;;;;;;8.62;68.71;100453.88;4880023;29;20053;-77
2022/04/15 04:41:56;;;;;;;16.02;9.27;;;;;;;8.55;68.74;100458.63;4880226;29;20049;-76
2022/04/15 04:44:25;;;;;;;22.00;10.10;;;;;;;8.75;66.86;100456.81;4879913;29;20059;-76
2022/04/15 04:46:53;;;;;;;21.67;9.88;;;;;;;8.79;67.89;100461.06;4880120;29;20045;-75
2022/04/15 04:49:22;;;;;;;19.65;10.38;;;;;;;8.59;67.85;100460.22;4863700;29;20071;-78
2022/04/15 04:51:52;;;;;;;20.05;10.63;;;;;;;8.57;67.35;100456.75;4880098;29;20053;-77
2022/04/15 04:54:20;;;;;;;19.45;10.18;;;;;;;8.68;67.51;100452.72;4863365;29;20049;-77
2022/04/15 04:56:49;;;;;;;18.67;10.25;;;;;;;9.05;65.27;100457.06;4863075;29;20060;-77
2022/04/15 04:59:17;;;;;;;22.30;11.18;;;;;;;9.07;63.81;100465.81;4863494;29;20549;-75
2022/04/15 05:01:45;;;;;;;21.27;10.98;;;;;;;9.08;62.29;100464.91;4879664;29;20053;-77
2022/04/15 05:04:19;;;;;;;18.83;10.52;;;;;;;9.16;62.48;100468.88;4879882;29;20049;-76
2022/04/15 05:06:47;;;;;;;19.15;10.82;;;;;;;9.58;61.11;100478.28;4879672;29;20056;-77
2022/04/15 05:09:17;;;;;;;23.27;11.60;;;;;;;9.66;61.94;100475.22;4862983;29;20053;-78
2022/04/15 05:11:45;;;;;;;20.27;12.32;;;;;;;9.75;61.84;100488.06;4879837;29;20041;-76
2022/04/15 05:14:13;;;;;;;21.67;11.32;;;;;;;9.62;62.49;100482.50;4863378;29;20503;-79
2022/04/15 05:16:41;;;;;;;19.08;10.48;;;;;;;9.44;63.67;100475.44;4879637;29;20132;-76
2022/04/15 05:19:09;;;;;;;24.55;11.93;;;;;;;9.80;62.90;100477.13;4863172;29;20113;-76
2022/04/15 05:21:38;;;;;;;22.17;10.38;;;;;;;9.79;63.19;100465.63;4862605;29;20049;-75
2022/04/15 05:24:07;;;;;;;16.42;9.60;;;;;;;10.12;61.83;100475.38;4863079;29;20452;-76
2022/04/15 05:26:38;;;;;;;17.83;9.45;;;;;;;10.00;62.02;100471.59;4862494;29;20080;-74
2022/04/15 05:29:08;;;;;;;14.48;8.73;;;;;;;10.01;61.46;100478.63;4879643;29;20076;-75
2022/04/15 05:31:36;;;;;;;18.73;8.93;;;;;;;10.08;61.57;100472.03;4879401;29;20045;-76
2022/04/15 05:34:05;;;;;;;15.00;9.57;;;;;;;10.15;61.07;100473.44;4880996;29;20049;-75
2022/04/15 05:36:33;;;;;;;19.95;9.25;;;;;;;10.32;60.67;100469.84;4866669;29;20084;-73
2022/04/15 05:39:01;;;;;;;15.25;9.05;;;;;;;10.26;61.32;100481.72;4863466;29;20092;-77
2022/04/15 05:41:30;;;;;;;18.90;9.75;;;;;;;10.30;61.59;100477.94;4863166;29;20057;-77
2022/04/15 05:43:59;;;;;;;19.30;10.00;;;;;;;10.35;61.77;100471.50;4879483;29;20140;-76
2022/04/15 05:46:31;;;;;;;17.67;10.27;;;;;;;10.52;61.71;100477.63;4864748;29;20510;-76
2022/04/15 05:48:59;;;;;;;16.02;9.43;;;;;;;10.75;60.14;100476.28;4863241;29;20053;-74
2022/04/15 05:51:28;;;;;;;16.60;9.68;;;;;;;10.99;59.79;100475.81;4878681;29;20049;-73
2022/04/15 05:53:56;;;;;;;15.60;10.30;;;;;;;11.26;58.07;100468.84;4864722;29;20046;-75
2022/04/15 05:56:24;;;;;;;17.27;10.20;;;;;;;11.22;58.22;100464.66;4878670;29;20110;-75
2022/04/15 05:58:52;;;;;;;20.38;11.02;;;;;;;11.52;57.03;100461.97;4862895;29;20676;-75
2022/04/15 06:01:22;;;;;;;15.20;9.10;;;;;;;11.51;56.23;100459.38;4878645;29;20050;-75
2022/04/15 06:03:51;;;;;;;21.40;10.30;;;;;;;11.40;57.01;100474.25;4864436;29;20442;-75
2022/04/15 06:06:19;;;;;;;17.33;9.85;;;;;;;11.55;56.73;100458.22;4863333;29;20062;-74
2022/04/15 06:08:47;;;;;;;16.42;10.07;;;;;;;11.74;55.67;100459.69;4864279;29;20052;-75
2022/04/15 06:11:16;;;;;;;15.52;10.18;;;;;;;12.20;54.63;100455.97;4864431;29;20070;-78
2022/04/15 06:13:47;;;;;;;15.55;9.63;;;;;;;12.51;52.23;100469.09;4864218;29;20129;-73
2022/04/15 06:16:17;;;;;;;19.73;10.10;;;;;;;13.00;50.71;100468.56;4864207;29;20088;-73
2022/04/15 06:18:48;;;;;;;14.85;9.35;;;;;;;13.46;49.26;100471.69;4864065;29;20045;-75
2022/04/15 06:21:36;;;;;;;14.60;10.15;;;;;;;13.63;47.78;100472.38;4878133;29;20049;-76
2022/04/15 06:24:06;;;;;;;18.13;10.13;;;;;;;13.64;48.90;100474.94;4863988;29;20137;-75
2022/04/15 06:26:35;;;;;;;18.00;10.00;;;;;;;13.97;48.02;100477.06;4863937;29;20441;-75
2022/04/15 06:29:04;;;;;;;18.05;11.05;;;;;;;14.16;47.52;100470.38;4863763;29;20053;-75
2022/04/15 06:31:32;;;;;;;17.42;11.07;;;;;;;14.50;46.71;100468.84;4880695;29;20053;-75
2022/04/15 06:34:03;;;;;;;18.40;10.32;;;;;;;14.47;46.51;100469.06;4881387;29;20049;-78
2022/04/15 06:36:31;;;;;;;19.15;10.65;;;;;;;14.75;45.35;100474.13;4883059;29;20082;-78
2022/04/15 06:38:59;;;;;;;17.48;10.85;;;;;;;14.76;44.75;100467.78;4897628;29;20056;-76
2022/04/15 06:41:28;;;;;;;17.58;10.88;;;;;;;14.59;44.77;100462.81;4884396;29;20406;-77
2022/04/15 06:43:56;;;;;;;18.80;10.82;;;;;;;15.23;43.78;100463.34;4883964;29;20470;-75
2022/04/15 06:46:24;;;;;;;20.38;11.18;;;;;;;15.17;43.21;100462.00;4883442;29;20052;-74
2022/04/15 06:48:52;;;;;;;15.32;10.25;;;;;;;14.95;43.30;100452.97;4900805;29;20411;-76
2022/04/15 06:51:25;;;;;;;15.77;11.18;;;;;;;15.00;43.83;100453.50;4883907;29;20052;-73
2022/04/15 06:53:53;;;;;;;17.08;10.35;;;;;;;15.25;43.48;100450.69;4902039;29;20040;-75
2022/04/15 06:56:21;;;;;;;18.55;11.55;;;;;;;15.59;42.92;100450.75;4902507;29;20052;-77
2022/04/15 06:58:49;;;;;;;17.27;10.55;;;;;;;15.17;43.98;100450.41;4884236;29;20052;-74
2022/04/15 07:01:18;;;;;;;18.08;11.00;;;;;;;15.27;43.76;100450.56;4884292;29;20056;-75
2022/04/15 07:03:46;;;;;;;22.20;11.88;;;;;;;15.27;43.49;100451.41;4901031;29;20068;-76
2022/04/15 07:06:14;;;;;;;19.10;11.02;;;;;;;15.49;42.93;100447.91;4884480;29;20063;-76
2022/04/15 07:08:44;;;;;;;16.23;10.98;;;;;;;15.76;40.68;100444.09;4885182;29;20447;-77
2022/04/15 07:11:15;;;;;;;19.75;11.13;;;;;;;15.95;41.05;100449.72;4900870;29;20049;-76
2022/04/15 07:13:43;;;;;;;16.60;11.10;;;;;;;15.83;39.92;100456.94;4890201;29;20116;-81
2022/04/15 07:16:11;;;;;;;18.88;11.02;;;;;;;15.55;41.31;100454.66;4883640;29;20443;-74
2022/04/15 07:18:40;;;;;;;18.20;11.00;;;;;;;15.35;41.31;100449.00;4899915;29;20136;-77
2022/04/15 07:21:08;;;;;;;20.20;10.63;;;;;;;15.49;41.91;100442.53;4900851;29;20079;-77
2022/04/15 07:23:36;;;;;;;18.65;10.43;;;;;;;15.64;41.17;100452.16;4883685;29;20108;-77
2022/04/15 07:26:06;;;;;;;17.77;10.98;;;;;;;15.81;41.08;100440.03;4883332;29;20104;-77
2022/04/15 07:28:34;;;;;;;20.30;11.05;;;;;;;16.25;39.54;100446.41;4883376;29;20052;-78
2022/04/15 07:31:02;;;;;;;17.42;10.18;;;;;;;16.46;39.74;100439.28;4900588;29;20179;-77
2022/04/15 07:33:30;;;;;;;18.52;11.18;;;;;;;16.73;38.45;100446.97;4901103;29;20112;-76
2022/04/15 07:35:58;;;;;;;17.77;10.60;;;;;;;16.91;38.50;100449.13;4899997;29;20195;-75
2022/04/15 07:38:32;;;;;;;19.65;10.27;;;;;;;16.78;38.51;100451.97;4899714;29;20128;-75
2022/04/15 07:41:00;;;;;;;15.95;9.70;;;;;;;16.90;37.34;100453.66;4882712;29;20143;-77
2022/04/15 07:43:30;;;;;;;20.83;10.38;;;;;;;16.84;37.68;100459.53;4898810;29;20087;-76
2022/04/15 07:45:58;;;;;;;20.65;10.77;;;;;;;16.99;36.95;100454.72;4882581;29;20059;-77
2022/04/15 07:48:26;;;;;;;16.00;10.25;;;;;;;16.94;36.28;100452.41;4892470;29;20472;-77
2022/04/15 07:50:56;;;;;;;22.67;10.43;;;;;;;16.98;34.70;100461.94;4908667;29;20413;-77
2022/04/15 07:53:24;;;;;;;18.02;10.25;;;;;;;17.03;35.18;100458.88;4901319;29;20044;-73
2022/04/15 07:55:52;;;;;;;18.40;10.20;;;;;;;17.10;34.94;100460.94;4882505;29;20063;-74
2022/04/15 07:58:20;;;;;;;17.20;9.80;;;;;;;17.10;36.13;100470.84;4907348;29;20435;-79
2022/04/15 08:00:50;;;;;;;18.25;9.60;;;;;;;17.26;36.24;100475.78;4884952;29;20073;-75
2022/04/15 08:03:20;;;;;;;19.08;10.38;;;;;;;17.54;35.83;100485.94;4892520;29;20462;-74
2022/04/15 08:05:49;;;;;;;20.60;10.63;;;;;;;17.64;35.27;100483.31;4896672;29;20509;-78
2022/04/15 08:08:18;;;;;;;20.13;10.88;;;;;;;17.80;33.48;100483.75;4892871;29;20100;-76
2022/04/15 08:10:50;;;;;;;17.88;10.10;;;;;;;18.11;34.23;100479.22;4906650;29;20409;-74
2022/04/15 08:13:19;;;;;;;17.85;10.75;;;;;;;18.10;34.56;100479.34;4899858;29;20055;-76
2022/04/15 08:15:50;;;;;;;20.73;11.25;;;;;;;18.14;33.13;100473.53;4906577;29;20063;-78
2022/04/15 08:18:20;;;;;;;19.08;11.13;;;;;;;18.25;34.14;100470.75;4909054;29;20123;-74
2022/04/15 08:20:50;;;;;;;17.30;11.02;;;;;;;18.24;33.83;100468.19;4891027;29;20056;-76
2022/04/15 08:23:19;;;;;;;18.45;10.90;;;;;;;18.13;33.82;100474.53;4906940;29;20041;-75
2022/04/15 08:25:48;;;;;;;19.42;11.43;;;;;;;18.13;33.59;100477.22;4890189;29;20063;-74
2022/04/15 08:28:22;;;;;;;18.73;11.38;;;;;;;18.15;33.47;100469.88;4902551;29;20052;-77
2022/04/15 08:30:53;;;;;;;19.08;11.68;;;;;;;18.05;33.95;100474.38;4900986;29;20513;-77
2022/04/15 08:33:23;;;;;;;20.30;11.95;;;;;;;18.03;33.90;100481.72;4918597;29;20058;-76
2022/04/15 08:35:52;;;;;;;21.40;11.60;;;;;;;18.24;34.01;100466.34;4900955;29;20399;-73
2022/04/15 08:38:20;;;;;;;18.13;11.13;;;;;;;18.39;33.84;100460.56;4900729;29;20080;-73
2022/04/15 08:40:50;;;;;;;17.58;11.55;;;;;;;18.44;33.85;100469.97;4917615;29;20044;-72
2022/04/15 08:43:18;;;;;;;19.33;10.98;;;;;;;18.57;33.99;100467.03;4917607;29;20092;-73
2022/04/15 08:45:48;;;;;;;20.00;10.90;;;;;;;18.77;33.37;100466.09;4900361;29;20055;-76
2022/04/15 08:48:16;;;;;;;18.25;11.48;;;;;;;18.73;33.21;100470.09;4900056;29;20067;-73
2022/04/15 08:50:46;;;;;;;15.88;10.60;;;;;;;18.69;32.99;100468.63;4895054;29;20076;-75
2022/04/15 08:53:15;;;;;;;16.95;9.25;;;;;;;18.72;32.14;100473.78;4892185;29;20048;-76
2022/04/15 08:55:43;;;;;;;14.35;8.73;;;;;;;18.48;31.16;100466.00;4890891;29;20045;-77
2022/04/15 08:58:11;;;;;;;14.15;8.05;;;;;;;18.46;30.98;100470.69;4886958;29;20062;-77
2022/04/15 09:00:44;;;;;;;15.27;8.35;;;;;;;18.56;30.55;100473.41;4887150;29;20132;-73
2022/04/15 09:03:12;;;;;;;11.32;7.05;;;;;;;18.63;30.67;100479.13;4896803;29;20554;-69
2022/04/15 09:05:41;;;;;;;13.10;6.78;;;;;;;18.72;31.31;100468.38;4897907;29;20049;-74
2022/04/15 09:08:12;;;;;;;12.77;7.57;;;;;;;18.52;30.45;100467.41;4897688;29;20466;-74
2022/04/15 09:10:41;;;;;;;13.27;7.32;;;;;;;18.42;30.03;100465.69;4898417;29;20048;-71
2022/04/15 09:13:20;;;;;;;14.77;8.18;;;;;;;18.64;30.96;100459.22;4882994;29;20565;-72
2022/04/15 09:15:50;;;;;;;14.93;8.85;;;;;;;18.85;31.13;100462.69;4898613;29;20051;-72
2022/04/15 09:18:32;;;;;;;11.68;7.65;;;;;;;18.78;30.43;100464.25;4881600;29;20061;-72
2022/04/15 09:21:21;;;;;;;13.07;8.13;;;;;;;18.93;30.53;100464.72;4881145;29;20474;-76
2022/04/15 09:23:52;;;;;;;11.32;7.07;;;;;;;19.04;30.88;100464.56;4898187;29;20494;-74
2022/04/15 09:26:21;;;;;;;10.90;6.18;;;;;;;18.95;30.67;100460.00;4898035;29;20072;-73
2022/04/15 09:28:50;;;;;;;10.45;6.07;;;;;;;18.94;30.45;100456.44;4898123;29;20076;-73
2022/04/15 09:31:20;;;;;;;15.10;6.60;;;;;;;19.20;30.70;100445.91;4880687;29;20086;-70
2022/04/15 09:33:56;;;;;;;11.13;6.28;;;;;;;19.50;30.66;100452.16;4883921;29;20070;-71
2022/04/15 09:36:30;;;;;;;13.10;6.45;;;;;;;19.42;29.77;100451.03;4888534;29;20108;-73
2022/04/15 09:39:10;;;;;;;9.30;5.53;;;;;;;19.44;30.57;100448.19;4916917;29;20051;-76
2022/04/15 09:41:40;;;;;;;10.57;5.65;;;;;;;19.45;28.23;100450.75;4891399;29;20048;-73
2022/04/15 09:44:13;;;;;;;11.77;6.00;;;;;;;19.17;29.65;100440.78;4906726;29;20052;-72
2022/04/15 09:46:42;;;;;;;11.75;5.50;;;;;;;19.25;27.18;100457.16;4889331;29;20089;-72
2022/04/15 09:49:12;;;;;;;9.85;5.43;;;;;;;19.13;27.51;100444.78;4906432;29;20044;-76
2022/04/15 09:51:44;;;;;;;10.43;5.40;;;;;;;19.12;27.37;100453.91;4890804;29;20080;-75
2022/04/15 09:54:24;;;;;;;8.32;4.72;;;;;;;19.05;27.14;100463.56;4890274;29;20055;-75
2022/04/15 09:56:54;;;;;;;9.38;5.03;;;;;;;18.99;27.69;100447.91;4911946;29;20449;-74
2022/04/15 09:59:24;;;;;;;10.13;5.85;;;;;;;18.91;27.80;100445.06;4916977;29;20050;-76
2022/04/15 10:01:55;;;;;;;11.30;5.57;;;;;;;18.93;28.55;100443.09;4881831;29;20044;-77
2022/04/15 10:04:27;;;;;;;10.35;5.63;;;;;;;19.04;28.30;100437.53;4905281;29;20401;-77
2022/04/15 10:06:55;;;;;;;10.75;5.72;;;;;;;19.08;28.41;100438.94;4896888;29;20076;-77
2022/04/15 10:09:27;;;;;;;12.25;5.93;;;;;;;19.16;28.03;100445.34;4877758;29;20089;-84
2022/04/15 10:11:57;;;;;;;9.48;5.43;;;;;;;19.25;28.82;100443.66;4877434;29;20140;-78
2022/04/15 10:14:26;;;;;;;16.20;6.05;;;;;;;19.18;28.33;100431.69;4862726;29;20053;-78
2022/04/15 10:16:55;;;;;;;15.68;6.22;;;;;;;19.52;28.45;100428.53;4880126;29;20493;-78
2022/04/15 10:19:24;;;;;;;12.38;6.38;;;;;;;19.23;28.78;100423.16;4879049;29;20053;-77
2022/04/15 10:21:55;;;;;;;10.57;5.55;;;;;;;19.35;28.00;100409.31;4882297;29;20048;-76
2022/04/15 10:24:26;;;;;;;8.50;4.63;;;;;;;19.03;27.90;100411.50;4884183;29;20127;-75
2022/04/15 10:26:59;;;;;;;8.80;4.78;;;;;;;19.28;27.40;100416.31;4883602;29;20076;-75
2022/04/15 10:29:28;;;;;;;11.60;5.63;;;;;;;19.37;27.09;100407.31;4883260;29;20051;-74
2022/04/15 10:31:57;;;;;;;10.60;4.70;;;;;;;19.41;26.69;100416.88;4883836;29;20053;-72
2022/04/15 10:34:25;;;;;;;9.18;4.85;;;;;;;19.62;26.63;100429.38;4884466;29;20418;-79
2022/04/15 10:36:55;;;;;;;8.35;4.82;;;;;;;19.68;26.75;100420.66;4900900;29;20052;-79
2022/04/15 10:39:29;;;;;;;11.82;5.35;;;;;;;19.55;27.16;100423.66;4901277;29;20052;-77
2022/04/15 10:42:04;;;;;;;9.50;5.10;;;;;;;19.50;27.20;100430.53;4901926;29;20053;-78
2022/04/15 10:44:36;;;;;;;8.80;4.85;;;;;;;19.27;27.77;100429.97;4885037;29;20059;-77
2022/04/15 10:47:10;;;;;;;11.98;4.93;;;;;;;19.34;27.74;100426.56;4886346;29;20075;-78
2022/04/15 10:49:40;;;;;;;12.23;4.80;;;;;;;19.48;27.37;100427.94;4887431;29;20516;-77
2022/04/15 10:52:21;;;;;;;9.73;4.85;;;;;;;19.42;28.45;100432.09;4886629;29;20053;-76
2022/04/15 10:54:54;;;;;;;11.57;5.50;;;;;;;19.60;27.97;100440.38;4887572;29;20075;-78
2022/04/15 10:57:32;;;;;;;9.05;4.90;;;;;;;19.64;27.33;100433.66;4887490;29;20575;-78
2022/04/15 11:02:50;;;;;;;10.15;5.07;;;;;;;19.79;27.83;100435.91;4868198;29;20108;-79
2022/04/15 11:05:35;;;;;;;11.30;5.50;;;;;;;19.53;27.50;100428.38;4872122;29;20049;-76
2022/04/15 11:08:08;;;;;;;8.80;4.97;;;;;;;19.48;28.41;100429.78;4902641;29;20123;-76
2022/04/15 11:10:47;;;;;;;10.85;4.70;;;;;;;19.54;28.57;100437.34;4902613;29;20051;-76
2022/04/15 11:13:50;;;;;;;9.25;4.88;;;;;;;19.24;27.25;100446.50;4902623;29;20060;-79
2022/04/15 11:16:19;;;;;;;9.88;4.97;;;;;;;19.30;26.58;100438.66;4883819;29;20045;-78
2022/04/15 11:18:50;;;;;;;11.80;5.10;;;;;;;19.03;27.42;100438.53;4866958;29;20076;-77
2022/04/15 11:21:27;;;;;;;9.48;4.43;;;;;;;18.84;27.86;100434.81;4883871;29;20037;-76
2022/04/15 11:23:57;;;;;;;10.13;4.45;;;;;;;19.24;27.86;100428.41;4882267;29;20440;-74
2022/04/15 11:26:28;;;;;;;8.80;4.90;;;;;;;18.95;28.19;100430.28;4882817;29;20045;-76
2022/04/15 11:28:58;;;;;;;8.77;4.40;;;;;;;19.04;28.34;100427.56;4883585;29;20052;-75
2022/04/15 11:31:28;;;;;;;8.57;4.60;;;;;;;19.02;28.70;100432.28;4876431;29;20057;-75
2022/04/15 11:34:03;;;;;;;8.30;4.65;;;;;;;18.94;29.25;100423.16;4882148;29;20049;-75